Meteo Giornale » Osservazioni meteo Italia » Catania-Sigonella

ore: 03:55 - Osservazioni Meteo Catania-Sigonella
Lat. 37° 24' N Lon. 14° 55' E Alt. 22 metri s.l.m.

sereno

20 °C

Sereno

Temp. 24 Ore

19 °C

36 °C

Nord

3.7 Km/h

Dew point 18 °C

Umidità 88 %

Visibilità  10 Km

Il sole sorge alle ore 06:31

Il sole tramonta alle ore 19:28

Data e Ora Cielo e Fenomeni T °C DP °C Um. % Pres. hPa Vis. km Vento km/h
Oggi h: 03:55 sereno Sereno 20 18 88 1016 10 N 3.7
Oggi h: 02:55 sereno Sereno 23 19 78 1016 10 O 11.1
Oggi h: 01:55 sereno Sereno 24 20 78 1016 10 O 7.4
Oggi h: 00:55 sereno Sereno 25 22 83 1016 10 NO 7.4
Ieri h: 23:55 sereno Sereno 25 22 83 1016 10 N 5.5
Ieri h: 22:55 sereno Sereno 26 23 83 1016 10 O 9.3
Ieri h: 21:55 sereno Sereno 26 23 83 1016 10 N 5.5
Ieri h: 20:55 sereno Sereno 28 24 78 1016 10 E 11.1
Ieri h: 19:55 sereno Sereno 29 23 70 1015 10 E 13
Ieri h: 18:55 poco_nuvoloso Poco Nuvoloso 30 20 55 1015 10 E 20.3
Ieri h: 17:55 poco_nuvoloso Poco Nuvoloso 32 18 43 1015 10 E 24
Ieri h: 16:55 poco_nuvoloso Poco Nuvoloso 33 18 41 1015 10 E 27.8
Ieri h: 15:55 poco_nuvoloso Poco Nuvoloso 36 19 36 1014 10 E 24
Ieri h: 14:55 poco_nuvoloso Poco Nuvoloso 36 19 36 1015 10 E 16.7
Ieri h: 13:55 sereno Sereno 36 20 39 1015 10 E/SE 18.5
Ieri h: 12:55 sereno Sereno 35 19 39 1015 10 E 13
Ieri h: 11:55 sereno Sereno 34 18 38 1016 10 N/NE 7.4
Ieri h: 10:55 sereno Sereno 33 18 41 1015 10 N 5.5
Ieri h: 09:55 sereno Sereno 30 18 48 1015 10 N 5.5
Ieri h: 08:55 sereno Sereno 26 17 57 1015 10 N 3.7
Ieri h: 07:55 sereno Sereno 21 17 77 1015 10 N 3.7
Ieri h: 06:55 sereno Sereno 19 17 88 1015 10 O/NO 7.4
Ieri h: 05:55 sereno Sereno 19 17 88 1014 10 N 5.5
Ieri h: 04:55 sereno Sereno 21 17 77 1014 10 O 13